createdAt,value
2023-02-21T20:38:41.199Z,81.20
2023-02-21T20:40:46.005Z,81.10
2023-02-21T20:42:55.804Z,81.00
2023-02-21T20:45:01.843Z,81.00
2023-02-21T20:47:06.516Z,81.20
2023-02-21T20:49:14.052Z,81.10
2023-02-21T20:51:18.890Z,81.20
2023-02-21T20:53:24.172Z,81.30
2023-02-21T20:55:28.065Z,81.20
2023-02-21T20:57:31.975Z,81.20
2023-02-21T20:59:37.487Z,81.30
2023-02-21T21:01:43.208Z,81.10
2023-02-21T21:03:47.098Z,81.10
2023-02-21T21:05:50.994Z,81.00
2023-02-21T21:07:56.214Z,81.10
2023-02-21T21:10:01.449Z,81.10
2023-02-21T21:12:08.994Z,81.00
2023-02-21T21:14:16.383Z,81.10
2023-02-21T21:16:21.124Z,81.10
2023-02-21T21:18:25.095Z,81.10
2023-02-21T21:20:28.955Z,81.10
2023-02-21T21:22:32.885Z,81.00
2023-02-21T21:24:36.937Z,81.00
2023-02-21T21:26:53.378Z,81.10
2023-02-21T21:29:16.758Z,81.10
2023-02-21T21:32:37.266Z,80.90
2023-02-21T21:39:56.878Z,81.00
2023-02-21T21:46:34.211Z,80.90
2023-02-21T21:50:33.829Z,81.50
2023-02-21T21:52:25.595Z,81.00
2023-02-21T21:54:31.349Z,81.10
2023-02-21T21:56:35.777Z,81.00
2023-02-21T21:58:42.062Z,81.00
2023-02-21T22:00:46.344Z,81.20
2023-02-21T22:02:51.731Z,80.70
2023-02-21T22:04:55.681Z,80.50
2023-02-21T22:06:59.586Z,74.60
2023-02-21T22:09:03.440Z,77.00
2023-02-21T22:11:09.731Z,76.90
2023-02-21T22:13:14.500Z,77.40
2023-02-21T22:15:20.267Z,78.40
2023-02-21T22:17:24.085Z,78.80
2023-02-21T22:19:29.269Z,79.10
2023-02-21T22:21:34.580Z,79.30
2023-02-21T22:23:41.395Z,79.40
